createdAt,value
2023-03-03T00:00:45.026Z,76.67
2023-03-03T00:03:15.991Z,76.95
2023-03-03T00:05:42.702Z,77.12
2023-03-03T00:08:10.586Z,77.67
2023-03-03T00:10:37.856Z,77.36
2023-03-03T00:13:06.248Z,77.64
2023-03-03T00:15:32.672Z,77.70
2023-03-03T00:17:59.734Z,77.46
2023-03-03T00:20:35.150Z,77.54
2023-03-03T00:23:16.847Z,77.68
2023-03-03T00:25:45.508Z,78.06
2023-03-03T00:28:32.374Z,77.59
2023-03-03T00:31:01.633Z,78.18
2023-03-03T00:33:33.980Z,78.33
2023-03-03T00:36:31.928Z,78.67
2023-03-03T00:39:26.089Z,79.13
2023-03-03T00:41:52.471Z,79.14
2023-03-03T00:44:41.871Z,79.55
2023-03-03T00:47:35.904Z,79.71
2023-03-03T00:50:11.441Z,79.51
2023-03-03T00:52:40.604Z,79.62
2023-03-03T00:55:08.560Z,80.26
2023-03-03T00:57:35.060Z,80.00
2023-03-03T01:00:01.707Z,80.06
2023-03-03T01:02:28.208Z,79.96
2023-03-03T01:04:56.459Z,80.50
2023-03-03T01:07:23.637Z,80.12
2023-03-03T01:09:49.987Z,79.85
2023-03-03T01:12:16.463Z,80.53
2023-03-03T01:14:43.137Z,80.70
2023-03-03T01:17:09.517Z,81.32
2023-03-03T01:19:35.926Z,81.99
2023-03-03T01:22:02.624Z,82.21
2023-03-03T01:24:29.009Z,83.10
2023-03-03T01:26:55.383Z,83.64
2023-03-03T01:29:21.730Z,84.08
2023-03-03T01:31:48.147Z,84.14
2023-03-03T01:34:14.536Z,84.05
2023-03-03T01:36:40.879Z,84.25
2023-03-03T01:39:07.333Z,83.73
2023-03-03T01:41:33.822Z,83.93
2023-03-03T01:44:00.781Z,83.89
2023-03-03T01:46:51.821Z,84.19
2023-03-03T01:49:25.018Z,83.86
2023-03-03T01:51:59.003Z,83.93
2023-03-03T01:54:36.284Z,83.46
2023-03-03T01:57:06.744Z,83.73
2023-03-03T01:59:37.694Z,83.17
2023-03-03T02:02:05.056Z,83.54
2023-03-03T02:04:31.545Z,83.63
2023-03-03T02:07:01.882Z,84.41
2023-03-03T02:09:35.839Z,83.70
2023-03-03T02:12:07.070Z,84.59
2023-03-03T02:14:34.501Z,84.09
2023-03-03T02:17:01.204Z,84.30
2023-03-03T02:19:43.895Z,84.86
2023-03-03T02:22:11.931Z,84.61
2023-03-03T02:24:44.875Z,85.05
2023-03-03T02:27:11.261Z,85.37
2023-03-03T02:29:37.647Z,86.07
2023-03-03T02:32:04.421Z,86.61
2023-03-03T02:34:30.823Z,86.76
2023-03-03T02:36:57.191Z,86.79
2023-03-03T02:39:26.599Z,86.40
2023-03-03T02:42:03.467Z,86.38
2023-03-03T02:44:32.747Z,86.44
2023-03-03T02:46:59.415Z,86.66
2023-03-03T02:49:33.876Z,86.29
2023-03-03T02:52:02.287Z,86.17
2023-03-03T02:54:30.938Z,86.35
2023-03-03T02:56:58.683Z,86.07
2023-03-03T02:59:25.185Z,85.95
2023-03-03T03:01:52.178Z,86.27
2023-03-03T03:04:24.308Z,86.31
2023-03-03T03:06:51.358Z,86.25
2023-03-03T03:09:19.592Z,86.24
2023-03-03T03:11:45.988Z,86.50
2023-03-03T03:14:14.469Z,86.20
2023-03-03T03:16:41.196Z,86.41
2023-03-03T03:19:08.006Z,86.20
2023-03-03T03:21:34.583Z,86.15
2023-03-03T03:24:01.291Z,86.32
2023-03-03T03:26:27.702Z,86.62
2023-03-03T03:28:54.073Z,86.98
2023-03-03T03:31:22.044Z,86.82
2023-03-03T03:33:48.975Z,86.91
2023-03-03T03:36:15.343Z,86.97
2023-03-03T03:38:41.766Z,86.77
2023-03-03T03:41:08.386Z,87.17
2023-03-03T03:43:35.203Z,87.39
2023-03-03T03:46:01.608Z,88.00
2023-03-03T03:48:28.810Z,88.36
2023-03-03T03:50:55.180Z,88.41
2023-03-03T03:53:21.567Z,88.82
2023-03-03T03:55:48.190Z,88.44
2023-03-03T03:58:17.148Z,88.73
2023-03-03T04:00:45.383Z,88.83
2023-03-03T04:03:14.548Z,88.46
2023-03-03T04:05:41.635Z,88.45
2023-03-03T04:08:08.494Z,88.55
2023-03-03T04:10:35.467Z,88.54
2023-03-03T04:13:01.907Z,87.71
2023-03-03T04:15:28.279Z,87.88
2023-03-03T04:17:54.801Z,87.72
2023-03-03T04:20:21.196Z,87.88
2023-03-03T04:22:47.526Z,87.76
2023-03-03T04:25:16.321Z,88.22
2023-03-03T04:27:43.268Z,88.73
2023-03-03T04:30:10.311Z,88.76
2023-03-03T04:32:37.847Z,88.64
2023-03-03T04:35:08.805Z,89.18
2023-03-03T04:37:36.604Z,88.68
2023-03-03T04:40:06.236Z,88.57
2023-03-03T04:42:32.903Z,88.84
2023-03-03T04:44:59.357Z,88.73
2023-03-03T04:47:26.106Z,89.27
2023-03-03T04:49:52.756Z,89.21
2023-03-03T04:52:19.241Z,89.29
2023-03-03T04:54:45.837Z,88.97
2023-03-03T04:57:12.214Z,89.40
2023-03-03T04:59:38.613Z,89.84
2023-03-03T05:02:05.293Z,89.79
2023-03-03T05:04:32.294Z,89.92
2023-03-03T05:06:58.742Z,90.04
2023-03-03T05:09:25.257Z,90.48
2023-03-03T05:11:51.735Z,90.83
2023-03-03T05:14:18.285Z,90.99
2023-03-03T05:16:44.768Z,91.63
2023-03-03T05:19:11.716Z,91.54
2023-03-03T05:21:42.615Z,91.91
2023-03-03T05:24:10.896Z,92.16
2023-03-03T05:26:37.496Z,92.01
2023-03-03T05:29:05.426Z,91.63
2023-03-03T05:31:32.046Z,91.92
2023-03-03T05:33:58.573Z,91.79
2023-03-03T05:36:24.967Z,91.81
2023-03-03T05:38:51.831Z,92.08
2023-03-03T05:41:18.444Z,92.64
2023-03-03T05:43:45.021Z,92.76
2023-03-03T05:46:11.629Z,92.39
2023-03-03T05:48:38.214Z,92.59
2023-03-03T05:51:05.133Z,92.55
2023-03-03T05:53:31.539Z,92.61
2023-03-03T05:55:58.047Z,92.79
2023-03-03T05:58:24.488Z,93.35
2023-03-03T06:00:50.980Z,93.19
2023-03-03T06:03:18.196Z,93.16
2023-03-03T06:05:44.668Z,92.58
2023-03-03T06:08:11.182Z,92.39
2023-03-03T06:10:37.651Z,92.88
2023-03-03T06:13:04.154Z,92.62
2023-03-03T06:15:30.605Z,93.26
2023-03-03T06:17:57.061Z,93.24
2023-03-03T06:20:23.407Z,92.91
2023-03-03T06:22:49.847Z,93.19
2023-03-03T06:25:16.385Z,92.64
2023-03-03T06:27:42.728Z,92.87
2023-03-03T06:30:09.828Z,92.49
2023-03-03T06:32:36.310Z,92.31
2023-03-03T06:35:02.871Z,92.24
2023-03-03T06:37:29.390Z,92.01
2023-03-03T06:39:55.923Z,91.89
2023-03-03T06:42:24.787Z,91.64
2023-03-03T06:44:51.171Z,91.78
2023-03-03T06:47:17.669Z,92.22
2023-03-03T06:49:43.998Z,91.85
2023-03-03T06:52:23.915Z,92.32
2023-03-03T06:54:54.848Z,91.96
2023-03-03T06:57:29.072Z,92.26
2023-03-03T07:00:00.112Z,92.36
2023-03-03T07:02:26.523Z,92.29
2023-03-03T07:04:55.850Z,92.19
2023-03-03T07:07:25.756Z,91.14
2023-03-03T07:09:55.399Z,91.35
2023-03-03T07:12:25.976Z,91.11
2023-03-03T07:15:01.951Z,91.21
2023-03-03T07:17:28.291Z,90.99
2023-03-03T07:19:54.736Z,91.33
2023-03-03T07:22:24.859Z,91.26
2023-03-03T07:24:53.856Z,91.66
2023-03-03T07:27:31.201Z,92.26
2023-03-03T07:30:14.225Z,92.80
2023-03-03T07:32:45.130Z,92.10
2023-03-03T07:35:24.191Z,91.97
2023-03-03T07:37:50.786Z,92.13
2023-03-03T07:40:36.624Z,91.99
2023-03-03T07:43:36.361Z,91.93
2023-03-03T07:46:28.002Z,90.98
2023-03-03T07:48:56.974Z,91.19
2023-03-03T07:51:33.288Z,91.36
2023-03-03T07:54:38.334Z,91.71
2023-03-03T07:57:27.324Z,91.46
2023-03-03T08:00:17.157Z,91.62
2023-03-03T08:02:47.231Z,91.89
2023-03-03T08:05:22.882Z,91.46
2023-03-03T08:07:52.599Z,91.57
2023-03-03T08:10:35.261Z,91.14
2023-03-03T08:13:12.629Z,90.83
2023-03-03T08:15:39.078Z,90.50
2023-03-03T08:18:48.081Z,89.96
2023-03-03T08:21:26.495Z,89.88
2023-03-03T08:23:54.003Z,89.91
2023-03-03T08:26:22.447Z,89.30
2023-03-03T08:28:49.677Z,89.14
2023-03-03T08:31:30.840Z,89.38
2023-03-03T08:34:01.903Z,88.72
2023-03-03T08:36:28.227Z,88.94
2023-03-03T08:38:54.792Z,88.71
2023-03-03T08:41:21.796Z,88.37
2023-03-03T08:43:48.477Z,87.96
2023-03-03T08:46:15.390Z,87.95
2023-03-03T08:48:42.524Z,87.51
2023-03-03T08:51:09.272Z,87.92
2023-03-03T08:53:38.382Z,88.08
2023-03-03T08:56:07.033Z,88.39
2023-03-03T08:58:35.996Z,88.72
2023-03-03T09:01:04.233Z,88.30
2023-03-03T09:03:31.622Z,88.34
2023-03-03T09:05:58.827Z,88.35
2023-03-03T09:08:25.847Z,88.20
2023-03-03T09:10:52.863Z,87.89
2023-03-03T09:13:20.576Z,87.99
2023-03-03T09:15:49.122Z,87.39
2023-03-03T09:18:38.745Z,86.57
2023-03-03T09:21:22.845Z,86.50
2023-03-03T09:23:53.048Z,86.74
2023-03-03T09:26:28.351Z,86.47
2023-03-03T09:29:15.570Z,85.84
2023-03-03T09:31:55.099Z,85.37
2023-03-03T09:34:38.755Z,85.65
2023-03-03T09:37:31.451Z,85.75
2023-03-03T09:39:58.881Z,85.41
2023-03-03T09:42:51.617Z,84.87
2023-03-03T09:45:31.793Z,85.13
2023-03-03T09:48:24.027Z,85.37
2023-03-03T09:51:02.673Z,85.25
2023-03-03T09:53:52.425Z,85.19
2023-03-03T09:56:39.525Z,84.48
2023-03-03T09:59:31.548Z,84.61
2023-03-03T10:02:10.037Z,84.48
2023-03-03T10:04:59.964Z,83.93
2023-03-03T10:07:44.873Z,84.27
2023-03-03T10:10:33.847Z,84.44
2023-03-03T10:13:26.181Z,84.52
2023-03-03T10:16:17.486Z,83.81
2023-03-03T10:19:01.153Z,83.36
2023-03-03T10:21:36.521Z,82.94
2023-03-03T10:24:28.880Z,83.11
2023-03-03T10:27:26.421Z,82.37
2023-03-03T10:30:24.188Z,81.97
2023-03-03T10:33:06.135Z,81.79
2023-03-03T10:36:14.738Z,81.87
2023-03-03T10:38:55.681Z,81.65
2023-03-03T10:41:44.282Z,81.18
2023-03-03T10:44:34.001Z,80.95
2023-03-03T10:47:23.874Z,81.59
2023-03-03T10:50:16.197Z,80.84
2023-03-03T10:53:05.774Z,81.02
2023-03-03T10:55:50.162Z,80.66
2023-03-03T10:58:25.590Z,80.33
2023-03-03T11:01:09.533Z,80.29
2023-03-03T11:03:47.167Z,80.05
2023-03-03T11:06:40.524Z,79.33
2023-03-03T11:09:38.987Z,79.37
2023-03-03T11:12:22.747Z,78.99
2023-03-03T11:15:26.949Z,78.83
2023-03-03T11:18:11.592Z,78.74
2023-03-03T11:21:01.195Z,78.67
2023-03-03T11:23:50.783Z,79.10
2023-03-03T11:26:32.498Z,78.66
2023-03-03T11:29:06.649Z,78.15
2023-03-03T11:31:35.995Z,77.69
2023-03-03T11:34:39.940Z,77.26
2023-03-03T11:37:24.304Z,76.92
2023-03-03T11:39:55.506Z,76.89
2023-03-03T11:42:46.711Z,75.95
2023-03-03T11:45:22.755Z,75.99
2023-03-03T11:48:18.430Z,75.72
2023-03-03T11:50:58.834Z,75.40
2023-03-03T11:53:39.019Z,74.72
2023-03-03T11:56:23.396Z,74.50
2023-03-03T11:59:01.863Z,73.53
2023-03-03T12:01:52.756Z,73.06
2023-03-03T12:04:25.535Z,72.48
2023-03-03T12:07:19.399Z,71.99
2023-03-03T12:10:19.014Z,71.92
2023-03-03T12:12:55.108Z,71.17
2023-03-03T12:15:28.666Z,71.11
2023-03-03T12:18:17.595Z,71.10
2023-03-03T12:21:12.289Z,70.81
2023-03-03T12:23:58.044Z,70.33
2023-03-03T12:27:00.136Z,69.73
2023-03-03T12:29:46.903Z,69.14
2023-03-03T12:32:26.990Z,68.21
2023-03-03T12:35:03.071Z,67.33
2023-03-03T12:37:54.352Z,66.88
2023-03-03T12:40:33.456Z,65.92
2023-03-03T12:43:17.406Z,64.99
2023-03-03T12:45:43.679Z,64.17
2023-03-03T12:48:18.040Z,64.71
2023-03-03T12:51:11.834Z,64.69
2023-03-03T12:54:08.650Z,64.50
2023-03-03T12:56:59.867Z,64.24
2023-03-03T12:59:41.357Z,64.26
2023-03-03T13:02:26.754Z,63.50
2023-03-03T13:04:56.489Z,62.96
2023-03-03T13:07:28.343Z,62.32
2023-03-03T13:10:13.291Z,62.06
2023-03-03T13:13:08.703Z,61.62
2023-03-03T13:15:51.833Z,61.92
2023-03-03T13:19:07.572Z,62.80
2023-03-03T13:21:47.196Z,61.77
2023-03-03T13:24:21.729Z,61.95
2023-03-03T13:27:00.731Z,61.97
2023-03-03T13:29:34.045Z,62.32
2023-03-03T13:32:13.498Z,61.68
2023-03-03T13:34:59.598Z,60.90
2023-03-03T13:37:44.393Z,59.73
2023-03-03T13:40:14.200Z,58.21
2023-03-03T13:42:43.382Z,57.41
2023-03-03T13:45:16.153Z,56.63
2023-03-03T13:48:00.020Z,55.38
2023-03-03T13:50:50.818Z,55.84
2023-03-03T13:53:54.157Z,55.82
2023-03-03T13:56:45.346Z,56.35
2023-03-03T13:59:45.267Z,55.47
2023-03-03T14:02:43.470Z,54.34
2023-03-03T14:05:35.885Z,53.71
2023-03-03T14:08:40.896Z,53.35
2023-03-03T14:11:26.607Z,53.04
2023-03-03T14:14:19.081Z,52.25
2023-03-03T14:17:08.369Z,51.49
2023-03-03T14:19:39.884Z,51.07
2023-03-03T14:22:23.530Z,50.60
2023-03-03T14:25:13.393Z,50.55
2023-03-03T14:27:48.797Z,50.52
2023-03-03T14:30:39.606Z,49.99
2023-03-03T14:33:09.303Z,49.55
2023-03-03T14:35:40.221Z,49.52
2023-03-03T14:38:32.759Z,49.34
2023-03-03T14:41:15.707Z,49.09
2023-03-03T14:43:46.267Z,48.96
2023-03-03T14:46:27.955Z,48.83
2023-03-03T14:48:57.071Z,48.42
2023-03-03T14:51:40.099Z,47.69
2023-03-03T14:54:19.600Z,47.87
2023-03-03T14:56:57.736Z,48.03
2023-03-03T14:59:26.755Z,48.10
2023-03-03T15:02:15.857Z,48.08
2023-03-03T15:04:43.046Z,47.61
2023-03-03T15:07:28.102Z,47.50
2023-03-03T15:09:54.738Z,47.79
2023-03-03T15:12:23.086Z,47.85
2023-03-03T15:15:02.642Z,48.11
2023-03-03T15:17:43.284Z,47.58
2023-03-03T15:20:32.145Z,47.68
2023-03-03T15:23:05.177Z,48.96
2023-03-03T15:26:09.278Z,49.37
2023-03-03T15:29:04.768Z,49.62
2023-03-03T15:31:49.635Z,50.11
2023-03-03T15:34:48.806Z,50.66
2023-03-03T15:37:39.822Z,51.46
2023-03-03T15:40:09.079Z,52.29
2023-03-03T15:43:20.103Z,53.48
2023-03-03T15:46:20.787Z,54.65
2023-03-03T15:49:12.142Z,56.15
2023-03-03T15:52:00.941Z,57.00
2023-03-03T15:55:00.321Z,58.22
2023-03-03T15:58:04.332Z,58.95
2023-03-03T16:01:11.006Z,59.34
2023-03-03T16:03:55.795Z,60.29
2023-03-03T16:06:31.049Z,60.32
2023-03-03T16:09:32.005Z,60.80
2023-03-03T16:12:19.522Z,61.16
2023-03-03T16:15:18.567Z,61.87
2023-03-03T16:18:10.611Z,61.54
2023-03-03T16:20:43.797Z,61.63
2023-03-03T16:23:19.422Z,61.90
2023-03-03T16:26:04.698Z,62.44
2023-03-03T16:28:41.927Z,63.36
2023-03-03T16:31:18.815Z,63.89
2023-03-03T16:34:03.106Z,64.05
2023-03-03T16:36:58.758Z,64.46
2023-03-03T16:39:58.406Z,64.50
2023-03-03T16:42:33.625Z,64.41
2023-03-03T16:45:49.664Z,64.64
2023-03-03T16:48:35.257Z,65.01
2023-03-03T16:51:26.256Z,65.24
2023-03-03T16:54:04.832Z,66.14
2023-03-03T16:56:49.186Z,66.32
2023-03-03T16:59:41.790Z,66.47
2023-03-03T17:02:38.890Z,66.14
2023-03-03T17:05:29.430Z,66.67
2023-03-03T17:08:15.012Z,66.65
2023-03-03T17:10:59.435Z,67.18
2023-03-03T17:14:20.147Z,67.74
2023-03-03T17:16:58.450Z,67.55
2023-03-03T17:19:41.701Z,67.42
2023-03-03T17:22:13.345Z,67.31
2023-03-03T17:24:42.746Z,67.70
2023-03-03T17:27:33.437Z,67.97
2023-03-03T17:30:18.018Z,68.00
2023-03-03T17:33:15.044Z,68.06
2023-03-03T17:35:56.533Z,68.29
2023-03-03T17:38:28.830Z,68.25
2023-03-03T17:41:22.664Z,68.16
2023-03-03T17:44:27.757Z,68.71
2023-03-03T17:47:00.261Z,68.52
2023-03-03T17:49:45.353Z,68.84
2023-03-03T17:52:39.924Z,69.19
2023-03-03T17:55:25.189Z,69.50
2023-03-03T17:58:15.734Z,69.19
2023-03-03T18:00:50.276Z,69.77
2023-03-03T18:03:37.885Z,70.10
2023-03-03T18:06:48.140Z,70.21
2023-03-03T18:09:33.119Z,70.10
2023-03-03T18:12:16.333Z,70.44
2023-03-03T18:14:58.976Z,70.31
2023-03-03T18:17:34.644Z,70.58
2023-03-03T18:20:26.833Z,70.60
2023-03-03T18:22:54.171Z,70.87
2023-03-03T18:25:26.384Z,71.21
2023-03-03T18:28:01.796Z,71.27
2023-03-03T18:30:33.361Z,71.55
2023-03-03T18:33:09.228Z,71.42
2023-03-03T18:35:44.068Z,71.55
2023-03-03T18:38:16.595Z,71.56
2023-03-03T18:41:12.082Z,71.34
2023-03-03T18:43:52.269Z,71.63
2023-03-03T18:46:24.590Z,71.74
2023-03-03T18:49:00.405Z,72.08
2023-03-03T18:51:38.810Z,72.48
2023-03-03T18:54:17.358Z,72.73
2023-03-03T18:56:57.247Z,72.92
2023-03-03T18:59:35.962Z,73.22
2023-03-03T19:02:29.873Z,73.39
2023-03-03T19:05:11.567Z,73.38
2023-03-03T19:07:49.333Z,73.45
2023-03-03T19:10:21.937Z,73.86
2023-03-03T19:12:53.891Z,73.83
2023-03-03T19:15:29.585Z,74.05
2023-03-03T19:18:01.908Z,74.01
2023-03-03T19:20:43.765Z,74.23
2023-03-03T19:23:20.283Z,74.50
2023-03-03T19:26:06.705Z,74.42
2023-03-03T19:28:53.097Z,74.40
2023-03-03T19:31:30.770Z,74.75
2023-03-03T19:34:07.373Z,74.77
2023-03-03T19:37:00.723Z,74.88
2023-03-03T19:39:39.172Z,75.13
2023-03-03T19:42:30.365Z,75.32
2023-03-03T19:45:05.921Z,76.10
2023-03-03T19:47:42.007Z,75.56
2023-03-03T19:50:32.989Z,76.13
2023-03-03T19:53:21.022Z,76.44
2023-03-03T19:56:25.930Z,76.56
2023-03-03T19:59:16.655Z,76.66
2023-03-03T20:01:47.043Z,77.27
2023-03-03T20:04:38.202Z,77.15
2023-03-03T20:07:22.542Z,77.33
2023-03-03T20:10:01.276Z,77.90
2023-03-03T20:12:53.296Z,77.61
2023-03-03T20:15:23.709Z,78.05
2023-03-03T20:18:24.210Z,78.52
2023-03-03T20:20:50.556Z,78.02
2023-03-03T20:23:21.929Z,78.21
2023-03-03T20:25:51.496Z,78.66
2023-03-03T20:28:32.661Z,78.70
2023-03-03T20:31:23.994Z,79.08
2023-03-03T20:34:17.905Z,79.43
2023-03-03T20:36:59.212Z,79.81
2023-03-03T20:39:42.709Z,80.16
2023-03-03T20:42:25.469Z,80.43
2023-03-03T20:45:27.926Z,79.92
2023-03-03T20:48:31.516Z,81.07
2023-03-03T20:51:07.408Z,80.25
2023-03-03T20:54:13.193Z,80.24
2023-03-03T20:56:47.056Z,81.12
2023-03-03T20:59:27.160Z,80.89
2023-03-03T21:02:17.542Z,81.48
2023-03-03T21:04:44.091Z,81.38
2023-03-03T21:07:24.420Z,81.68
2023-03-03T21:10:09.058Z,81.38
2023-03-03T21:12:35.420Z,81.81
2023-03-03T21:15:04.600Z,81.37
2023-03-03T21:17:31.576Z,81.63
2023-03-03T21:20:31.390Z,81.93
2023-03-03T21:22:59.431Z,82.36
2023-03-03T21:25:41.223Z,82.54
2023-03-03T21:28:24.216Z,82.53
2023-03-03T21:31:05.336Z,82.59
2023-03-03T21:33:46.176Z,82.41
2023-03-03T21:36:24.309Z,82.36
2023-03-03T21:38:52.903Z,82.78
2023-03-03T21:41:20.179Z,82.83
2023-03-03T21:43:49.970Z,82.64
2023-03-03T21:46:24.653Z,82.05
2023-03-03T21:48:52.018Z,81.90
2023-03-03T21:51:20.272Z,81.83
2023-03-03T21:53:46.808Z,82.38
2023-03-03T21:56:16.380Z,82.58
2023-03-03T21:58:43.164Z,82.96
2023-03-03T22:01:09.869Z,82.43
2023-03-03T22:03:36.557Z,83.04
2023-03-03T22:06:03.224Z,82.97
2023-03-03T22:08:29.711Z,82.99
2023-03-03T22:10:56.458Z,82.94
2023-03-03T22:13:24.494Z,83.05
2023-03-03T22:15:51.168Z,83.07
2023-03-03T22:18:20.739Z,83.29
2023-03-03T22:20:48.361Z,83.00
2023-03-03T22:23:15.669Z,83.38
2023-03-03T22:25:42.512Z,83.47
2023-03-03T22:28:09.430Z,83.21
2023-03-03T22:30:36.361Z,83.08
2023-03-03T22:33:02.836Z,83.31
2023-03-03T22:35:29.203Z,83.15
2023-03-03T22:37:55.580Z,83.12
2023-03-03T22:40:28.247Z,82.96
2023-03-03T22:42:54.734Z,83.16
2023-03-03T22:45:21.176Z,83.38
2023-03-03T22:47:47.567Z,83.99
2023-03-03T22:50:14.251Z,83.46
2023-03-03T22:52:40.734Z,83.71
2023-03-03T22:55:07.671Z,83.63
2023-03-03T22:57:34.180Z,83.43
2023-03-03T23:00:02.204Z,83.68
2023-03-03T23:02:29.509Z,83.48
2023-03-03T23:05:00.971Z,83.84
2023-03-03T23:07:28.955Z,84.28
2023-03-03T23:09:55.904Z,84.24
2023-03-03T23:12:22.832Z,84.19
2023-03-03T23:14:49.244Z,84.13
2023-03-03T23:17:15.663Z,84.05
2023-03-03T23:19:43.506Z,83.95
2023-03-03T23:22:09.865Z,84.00
2023-03-03T23:24:36.260Z,84.54
2023-03-03T23:27:02.620Z,84.48
2023-03-03T23:29:30.501Z,84.64
2023-03-03T23:31:56.918Z,84.54
2023-03-03T23:34:23.299Z,84.76
2023-03-03T23:36:49.600Z,84.84
2023-03-03T23:39:16.694Z,84.65
2023-03-03T23:41:45.012Z,84.61
2023-03-03T23:44:12.389Z,83.84
2023-03-03T23:46:40.012Z,84.29
2023-03-03T23:49:06.932Z,84.35
2023-03-03T23:51:34.467Z,84.53
2023-03-03T23:54:00.954Z,84.61
2023-03-03T23:56:27.542Z,84.96
2023-03-03T23:58:54.068Z,84.66
